N1261P KLGA-KLGA

Flight info

Callsign N1261P
Flight time 0h 6m
Altitude 1000
Route KLGA ZZZZ
Aircraft VJ/L-V/N

Departure

Time 2026-05-05 22:02
Airport LaGuardia Airport (KLGA)

Arrival

Time 2026-05-05 22:08
Airport LaGuardia Airport (KLGA)
Time Latitude Longitude Altitude Speed Heading
2026-05-05 21:43 40.77402 -73.88351 9 ft 0 kts 270°
2026-05-05 21:57 40.77408 -73.88354 9 ft 2 kts 56°
2026-05-05 21:57 40.77403 -73.88286 11 ft 10 kts 91°
2026-05-05 21:58 40.77439 -73.88232 10 ft 10 kts 33°
2026-05-05 21:58 40.77508 -73.88173 10 ft 12 kts 33°
2026-05-05 21:58 40.77575 -73.88182 11 ft 14 kts 275°
2026-05-05 21:58 40.77622 -73.88236 13 ft 13 kts 76°
2026-05-05 21:59 40.77629 -73.88141 13 ft 8 kts 87°
2026-05-05 21:59 40.77631 -73.88081 13 ft 7 kts 86°
2026-05-05 21:59 40.77634 -73.88037 13 ft 1 kts 44°
2026-05-05 21:59 40.77724 -73.87995 13 ft 28 kts 39°
2026-05-05 22:00 40.77880 -73.87867 13 ft 24 kts 33°
2026-05-05 22:00 40.77961 -73.87798 11 ft 0 kts 33°
2026-05-05 22:00 40.77977 -73.87787 10 ft 10 kts 23°
2026-05-05 22:00 40.78061 -73.87836 9 ft 17 kts 349°
2026-05-05 22:01 40.78140 -73.87856 15 ft 3 kts 349°
2026-05-05 22:01 40.78144 -73.87857 17 ft 5 kts 349°
2026-05-05 22:01 40.78202 -73.87826 9 ft 17 kts 87°
2026-05-05 22:02 40.78065 -73.87512 7 ft 72 kts 142°
2026-05-05 22:02 40.77716 -73.86795 186 ft 104 kts 123°
2026-05-05 22:02 40.77371 -73.85973 643 ft 115 kts 137°
2026-05-05 22:02 40.76947 -73.84914 841 ft 157 kts 91°
2026-05-05 22:03 40.77439 -73.83802 978 ft 139 kts 52°
2026-05-05 22:03 40.78183 -73.82902 833 ft 151 kts 43°
2026-05-05 22:03 40.79103 -73.82238 948 ft 147 kts
2026-05-05 22:03 40.80097 -73.82505 957 ft 141 kts 327°
2026-05-05 22:04 40.80955 -73.83123 909 ft 142 kts 321°
2026-05-05 22:04 40.81752 -73.83933 863 ft 141 kts 300°
2026-05-05 22:04 40.82217 -73.85008 958 ft 129 kts 286°
2026-05-05 22:04 40.82581 -73.86118 997 ft 131 kts 283°
2026-05-05 22:05 40.82925 -73.87210 1102 ft 127 kts 281°
2026-05-05 22:05 40.83252 -73.88314 1131 ft 130 kts 279°
2026-05-05 22:05 40.83349 -73.89288 1069 ft 96 kts 231°
2026-05-05 22:05 40.82815 -73.89848 831 ft 105 kts 208°
2026-05-05 22:06 40.82218 -73.90289 837 ft 91 kts 205°
2026-05-05 22:06 40.81654 -73.90712 718 ft 95 kts 212°
2026-05-05 22:06 40.81107 -73.91182 568 ft 92 kts 215°
2026-05-05 22:06 40.80591 -73.91599 476 ft 83 kts 213°
2026-05-05 22:07 40.80048 -73.91990 323 ft 99 kts 187°
2026-05-05 22:07 40.79466 -73.91541 259 ft 115 kts 135°
2026-05-05 22:07 40.79239 -73.90388 158 ft 145 kts 111°
2026-05-05 22:07 40.78817 -73.89017 166 ft 162 kts 139°
2026-05-05 22:08 40.78238 -73.87866 45 ft 138 kts 133°
2026-05-05 22:08 40.77793 -73.86930 11 ft 100 kts 130°
2026-05-05 22:08 40.77515 -73.86403 7 ft 24 kts 139°